Time;durP1;ratioP1;P1;durP2;ratioP2;P2;SDS_P1;SDS_P2;PMS_P1;PMS_P2;Temp;Humidity;BMP_temperature;BMP_pressure;BME280_temperature;BME280_humidity;BME280_pressure;Samples;Min_cycle;Max_cycle;Signal;HPM_P1;HPM_P2
2022/01/13 00:01:19;;;;;;;46.90;20.90;;;;;;;0.20;75.99;101787.84;130147;1268;237019;-76
2022/01/13 00:04:24;;;;;;;66.00;29.40;;;;;;;0.13;76.75;101789.85;130326;1267;109787;-77
2022/01/13 00:07:30;;;;;;;62.40;27.80;;;;;;;0.18;75.95;101793.86;130329;1266;108801;-76
2022/01/13 00:10:35;;;;;;;40.20;19.60;;;;;;;0.20;76.26;101799.75;130425;1267;108676;-74
2022/01/13 00:13:48;;;;;;;34.80;16.70;;;;;;;0.16;77.00;101800.95;130361;1267;106911;-75
2022/01/13 00:20:33;;;;;;;42.80;20.10;;;;;;;0.05;76.56;101820.54;130365;1267;107703;-74
2022/01/13 00:23:45;;;;;;;34.30;16.80;;;;;;;0.09;77.68;101822.33;130365;1268;107137;-74
2022/01/13 00:26:52;;;;;;;41.30;19.00;;;;;;;0.05;77.66;101808.28;130378;1267;108838;-75
2022/01/13 00:30:01;;;;;;;53.90;23.40;;;;;;;0.08;76.82;101781.61;130350;1267;108884;-74
2022/01/13 00:33:08;;;;;;;40.30;19.20;;;;;;;0.17;76.80;101755.39;130414;1267;108539;-74
2022/01/13 00:36:14;;;;;;;38.90;17.60;;;;;;;0.19;77.52;101755.17;130371;1267;108748;-74
2022/01/13 00:39:19;;;;;;;42.50;20.20;;;;;;;0.07;77.34;101767.27;130416;1267;108641;-74
2022/01/13 00:42:25;;;;;;;54.00;23.30;;;;;;;0.06;77.18;101779.20;130396;1268;108780;-74
2022/01/13 00:45:30;;;;;;;132.60;57.20;;;;;;;0.12;76.98;101779.70;130388;1267;109136;-74
2022/01/13 00:48:36;;;;;;;44.60;20.70;;;;;;;0.22;77.06;101775.02;130356;1268;109056;-73
2022/01/13 00:51:43;;;;;;;45.00;21.80;;;;;;;0.21;77.18;101758.42;130148;1267;109916;-74
2022/01/13 00:54:49;;;;;;;62.50;33.60;;;;;;;0.23;76.88;101714.63;130275;1267;108854;-75
2022/01/13 00:57:54;;;;;;;80.00;37.30;;;;;;;0.29;76.67;101719.66;130325;1268;108682;-75
2022/01/13 01:01:01;;;;;;;230.40;86.00;;;;;;;0.29;76.70;101732.77;130341;1268;108808;-75
2022/01/13 01:04:08;;;;;;;46.20;21.00;;;;;;;0.28;77.11;101727.58;130340;1267;108857;-75
2022/01/13 01:07:13;;;;;;;50.30;21.10;;;;;;;0.17;77.04;101734.58;130362;1268;108393;-76
2022/01/13 01:10:20;;;;;;;38.50;18.00;;;;;;;0.12;77.18;101760.29;130361;1267;107638;-76
2022/01/13 01:13:29;;;;;;;88.10;38.00;;;;;;;0.20;77.22;101765.63;130389;1267;108822;-75
2022/01/13 01:16:36;;;;;;;63.10;29.10;;;;;;;0.28;76.93;101767.46;130373;1268;108756;-75
2022/01/13 01:19:44;;;;;;;71.90;32.60;;;;;;;0.32;77.16;101768.39;130405;1268;108821;-75
2022/01/13 01:23:09;;;;;;;91.30;41.80;;;;;;;0.29;77.06;101756.60;130314;1267;107355;-75
2022/01/13 01:26:25;;;;;;;162.90;64.50;;;;;;;0.27;77.28;101751.91;130354;1267;108847;-74
2022/01/13 01:29:37;;;;;;;79.50;35.80;;;;;;;0.27;77.01;101741.97;130439;1268;107295;-75
2022/01/13 01:32:43;;;;;;;65.40;28.50;;;;;;;0.33;76.71;101729.33;130398;1268;108735;-75
2022/01/13 01:35:49;;;;;;;83.60;37.60;;;;;;;0.42;76.83;101724.48;130337;1268;107416;-75
2022/01/13 01:38:56;;;;;;;132.50;62.30;;;;;;;0.46;76.66;101716.81;130382;1267;108941;-75
2022/01/13 01:42:02;;;;;;;115.00;54.40;;;;;;;0.48;76.70;101703.09;130446;1267;107028;-75
2022/01/13 01:45:10;;;;;;;137.70;63.20;;;;;;;0.54;76.46;101705.52;130090;1268;108973;-76
2022/01/13 01:48:19;;;;;;;77.10;36.80;;;;;;;0.55;76.53;101709.67;130348;1267;108596;-75
2022/01/13 01:51:25;;;;;;;47.80;20.70;;;;;;;0.53;76.65;101711.52;130322;1268;107704;-75
2022/01/13 01:54:31;;;;;;;63.00;25.40;;;;;;;0.49;76.68;101726.19;130281;1268;108721;-75
2022/01/13 01:57:36;;;;;;;45.00;20.00;;;;;;;0.43;77.45;101742.13;130330;1267;109059;-73
2022/01/13 02:00:42;;;;;;;56.90;25.60;;;;;;;0.37;77.32;101747.91;130317;1268;108706;-74
2022/01/13 02:03:48;;;;;;;92.10;40.80;;;;;;;0.39;77.63;101742.23;130448;1267;108755;-74
2022/01/13 02:06:54;;;;;;;57.00;25.80;;;;;;;0.41;77.35;101726.61;130445;1268;108856;-76
2022/01/13 02:10:00;;;;;;;47.60;20.80;;;;;;;0.43;77.25;101700.48;130421;1268;108946;-74
2022/01/13 02:13:10;;;;;;;58.40;23.50;;;;;;;0.43;77.04;101696.25;130348;1268;108998;-74
2022/01/13 02:16:37;;;;;;;61.90;25.80;;;;;;;0.46;77.43;101680.78;130330;1267;108837;-75
2022/01/13 02:19:45;;;;;;;78.50;32.30;;;;;;;0.45;77.96;101679.91;130335;1268;108710;-74
2022/01/13 02:22:50;;;;;;;68.40;29.40;;;;;;;0.47;77.85;101683.19;130766;1268;108703;-74
2022/01/13 02:25:56;;;;;;;74.30;28.30;;;;;;;0.47;78.20;101690.86;130482;1267;108950;-74
2022/01/13 02:29:01;;;;;;;50.90;21.30;;;;;;;0.41;78.50;101696.52;130355;1268;108738;-76
2022/01/13 02:32:08;;;;;;;58.40;22.70;;;;;;;0.35;78.20;101699.67;130342;1268;108831;-74
2022/01/13 02:35:14;;;;;;;51.20;21.80;;;;;;;0.33;78.22;101698.35;130397;1268;108728;-75
2022/01/13 02:38:19;;;;;;;47.50;19.50;;;;;;;0.30;79.15;101698.79;130374;1268;109197;-74
2022/01/13 02:41:26;;;;;;;51.90;21.90;;;;;;;0.32;78.57;101696.80;130391;1268;108738;-76
2022/01/13 02:44:31;;;;;;;44.00;19.00;;;;;;;0.36;78.61;101694.21;130417;1268;108863;-77
2022/01/13 02:47:59;;;;;;;49.70;20.40;;;;;;;0.40;78.42;101690.77;130412;1268;108836;-75
2022/01/13 02:51:05;;;;;;;59.60;22.80;;;;;;;0.40;78.48;101688.14;130440;1268;108955;-74
2022/01/13 02:54:12;;;;;;;52.50;21.10;;;;;;;0.45;78.35;101680.28;130480;1268;108968;-74
2022/01/13 02:57:17;;;;;;;43.90;18.40;;;;;;;0.53;78.34;101673.16;130374;1268;109016;-73
2022/01/13 03:00:22;;;;;;;53.80;21.40;;;;;;;0.59;78.46;101665.42;130374;1267;108689;-73
2022/01/13 03:03:29;;;;;;;49.20;20.80;;;;;;;0.53;79.09;101661.60;130365;1268;108594;-72
2022/01/13 03:06:38;;;;;;;49.30;20.10;;;;;;;0.51;78.71;101663.79;130374;1267;108487;-75
2022/01/13 03:09:44;;;;;;;57.00;22.50;;;;;;;0.49;78.95;101659.28;130353;1268;108648;-75
2022/01/13 03:12:50;;;;;;;41.20;19.40;;;;;;;0.48;79.33;101661.77;130412;1267;109099;-73
2022/01/13 03:15:55;;;;;;;45.10;17.80;;;;;;;0.37;80.30;101667.05;130185;1267;108686;-72
2022/01/13 03:19:01;;;;;;;42.50;19.60;;;;;;;0.35;79.57;101665.17;130298;1267;108918;-74
2022/01/13 03:22:06;;;;;;;40.00;18.50;;;;;;;0.42;79.61;101654.98;130362;1267;108883;-72
2022/01/13 03:25:14;;;;;;;41.90;19.70;;;;;;;0.46;79.55;101657.11;130371;1266;108817;-72
2022/01/13 03:28:29;;;;;;;42.80;18.40;;;;;;;0.45;79.40;101645.42;130312;1267;108683;-74
2022/01/13 03:31:34;;;;;;;37.70;16.50;;;;;;;0.49;79.37;101624.30;130348;1267;109717;-74
2022/01/13 03:34:40;;;;;;;31.60;13.90;;;;;;;0.58;79.18;101618.17;130310;1267;109069;-74
2022/01/13 03:37:46;;;;;;;32.50;14.60;;;;;;;0.68;79.11;101632.54;130374;1266;109177;-73
2022/01/13 03:40:51;;;;;;;36.30;17.90;;;;;;;0.74;79.11;101633.71;130362;1267;107099;-73
2022/01/13 03:43:58;;;;;;;37.00;16.80;;;;;;;0.73;79.28;101641.10;130346;1267;108980;-74
2022/01/13 03:47:05;;;;;;;36.40;16.10;;;;;;;0.68;79.13;101643.00;130378;1267;109704;-74
2022/01/13 03:50:11;;;;;;;38.10;17.40;;;;;;;0.65;79.20;101641.02;130363;1267;108729;-75
2022/01/13 03:54:15;;;;;;;39.30;16.70;;;;;;;0.67;79.03;101642.70;130311;1267;108788;-76
2022/01/13 03:58:12;;;;;;;33.40;15.00;;;;;;;0.73;79.10;101638.80;129988;1267;108645;-76
2022/01/13 04:01:57;;;;;;;35.80;15.60;;;;;;;0.83;79.12;101644.23;130305;1267;108751;-77
2022/01/13 04:05:03;;;;;;;30.50;15.60;;;;;;;0.88;78.95;101634.77;130316;1267;109105;-77
2022/01/13 04:08:08;;;;;;;32.70;15.20;;;;;;;0.89;78.91;101623.36;130370;1267;106724;-78
2022/01/13 04:11:20;;;;;;;38.70;15.70;;;;;;;0.87;78.95;101623.23;130356;1267;108621;-78
2022/01/13 04:14:30;;;;;;;33.30;16.10;;;;;;;0.83;79.20;101613.60;130438;1267;107251;-78
2022/01/13 04:17:36;;;;;;;29.00;14.10;;;;;;;0.84;79.18;101609.70;130340;1267;109059;-77
2022/01/13 04:20:41;;;;;;;32.70;14.60;;;;;;;0.90;79.21;101600.73;130332;1267;107906;-77
2022/01/13 04:23:47;;;;;;;31.70;15.50;;;;;;;0.93;78.85;101588.83;130368;1267;108747;-78
2022/01/13 04:26:55;;;;;;;31.50;15.40;;;;;;;0.98;79.00;101585.15;130315;1267;108915;-77
2022/01/13 04:30:22;;;;;;;37.20;16.50;;;;;;;1.00;78.88;101580.02;130317;1267;108930;-78
2022/01/13 04:33:27;;;;;;;32.90;16.50;;;;;;;0.95;79.08;101568.81;130332;1267;106723;-77
2022/01/13 04:36:32;;;;;;;40.60;18.70;;;;;;;0.91;79.32;101556.00;130306;1267;109482;-77
2022/01/13 04:39:38;;;;;;;30.90;14.90;;;;;;;0.93;79.18;101549.25;130329;1267;107725;-77
2022/01/13 04:42:45;;;;;;;36.30;15.90;;;;;;;0.96;79.20;101539.70;130258;1267;108991;-77
2022/01/13 04:45:51;;;;;;;29.90;14.80;;;;;;;1.00;79.22;101543.04;130213;1267;107163;-77
2022/01/13 04:48:57;;;;;;;32.70;14.90;;;;;;;1.04;79.34;101544.30;130370;1266;107225;-77
2022/01/13 04:52:03;;;;;;;32.10;15.50;;;;;;;1.03;79.36;101545.20;130328;1267;108785;-76
2022/01/13 04:55:13;;;;;;;28.50;14.90;;;;;;;0.99;79.58;101548.49;130317;1267;108767;-77
2022/01/13 04:58:18;;;;;;;30.90;15.10;;;;;;;0.95;79.56;101556.19;130395;1267;110116;-77
2022/01/13 05:01:24;;;;;;;25.60;12.30;;;;;;;0.95;79.73;101559.85;130343;1267;108776;-77
2022/01/13 05:04:30;;;;;;;27.90;13.20;;;;;;;0.95;79.76;101561.79;130343;1266;106980;-78
2022/01/13 05:07:36;;;;;;;27.90;13.50;;;;;;;0.99;79.68;101552.36;130309;1267;108871;-77
2022/01/13 05:10:41;;;;;;;22.70;13.00;;;;;;;1.01;79.55;101546.69;130407;1267;108733;-76
2022/01/13 05:13:47;;;;;;;24.50;13.00;;;;;;;1.05;79.64;101536.54;130365;1267;108478;-77
2022/01/13 05:16:58;;;;;;;26.60;13.40;;;;;;;1.03;79.51;101528.39;130353;1267;108711;-77
2022/01/13 05:20:14;;;;;;;22.90;12.20;;;;;;;1.03;79.73;101529.07;130346;1267;109517;-77
2022/01/13 05:23:20;;;;;;;110.70;45.10;;;;;;;1.03;80.00;101527.51;130310;1267;108810;-77
2022/01/13 05:26:25;;;;;;;41.60;24.00;;;;;;;1.07;79.86;101518.75;130308;1266;106788;-77
2022/01/13 05:29:31;;;;;;;23.90;13.70;;;;;;;1.15;79.75;101520.35;130289;1267;108934;-76
2022/01/13 05:32:36;;;;;;;43.90;21.80;;;;;;;1.20;79.74;101534.73;130195;1267;108726;-77
2022/01/13 05:35:42;;;;;;;67.40;30.80;;;;;;;1.20;79.69;101531.55;130123;1267;109112;-77
2022/01/13 05:38:47;;;;;;;159.30;52.50;;;;;;;1.17;79.71;101536.75;130380;1267;107680;-77
2022/01/13 05:41:53;;;;;;;78.40;32.50;;;;;;;1.13;79.90;101535.34;130250;1268;108795;-77
2022/01/13 05:44:59;;;;;;;64.40;29.50;;;;;;;1.12;79.99;101539.75;130342;1267;108899;-78
2022/01/13 05:48:05;;;;;;;39.00;19.30;;;;;;;1.19;80.19;101538.62;130285;1266;107543;-78
2022/01/13 05:51:11;;;;;;;42.10;20.00;;;;;;;1.26;80.13;101531.52;130326;1267;108725;-78
2022/01/13 05:54:17;;;;;;;68.00;26.80;;;;;;;1.31;79.92;101518.33;130337;1267;108717;-78
2022/01/13 05:57:22;;;;;;;44.30;20.10;;;;;;;1.33;80.01;101509.29;130342;1266;109173;-78
2022/01/13 06:00:28;;;;;;;34.30;18.80;;;;;;;1.31;79.90;101507.63;130350;1267;108897;-78
2022/01/13 06:03:33;;;;;;;29.90;17.80;;;;;;;1.29;80.10;101507.86;130320;1267;108988;-78
2022/01/13 06:06:39;;;;;;;16.10;9.50;;;;;;;1.31;79.99;101507.27;130402;1267;108736;-78
2022/01/13 06:09:44;;;;;;;24.70;15.30;;;;;;;1.36;80.06;101499.67;130296;1267;108732;-78
2022/01/13 06:12:52;;;;;;;25.60;15.60;;;;;;;1.40;80.17;101486.39;130271;1267;108756;-79
2022/01/13 06:15:57;;;;;;;21.90;14.90;;;;;;;1.42;80.02;101483.16;130324;1266;108891;-77
2022/01/13 06:19:03;;;;;;;17.70;10.50;;;;;;;1.42;80.00;101475.78;130303;1267;108787;-78
2022/01/13 06:22:09;;;;;;;22.70;12.50;;;;;;;1.40;79.98;101485.66;130294;1267;108716;-78
2022/01/13 06:25:15;;;;;;;21.70;11.90;;;;;;;1.36;80.24;101490.55;130735;1267;108933;-82
2022/01/13 06:28:21;;;;;;;16.10;9.00;;;;;;;1.36;80.30;101486.20;130413;1267;108804;-82
2022/01/13 06:31:26;;;;;;;52.20;30.90;;;;;;;1.37;80.27;101469.84;130457;1267;107483;-80
2022/01/13 06:34:32;;;;;;;40.80;25.60;;;;;;;1.47;80.40;101475.73;130620;1267;108814;-81
2022/01/13 06:37:37;;;;;;;82.50;48.40;;;;;;;1.48;80.35;101467.64;130603;1266;107632;-80
2022/01/13 06:40:43;;;;;;;259.30;93.40;;;;;;;1.47;80.41;101475.92;130508;1267;107068;-78
2022/01/13 06:43:49;;;;;;;42.80;26.60;;;;;;;1.44;80.56;101463.76;130379;1267;108879;-80
2022/01/13 06:46:55;;;;;;;64.00;38.40;;;;;;;1.47;80.48;101442.26;130627;1267;108679;-80
2022/01/13 06:50:00;;;;;;;125.60;53.30;;;;;;;1.54;80.48;101432.67;130444;1266;108822;-79
2022/01/13 06:53:06;;;;;;;57.30;30.70;;;;;;;1.59;80.44;101403.15;130455;1266;108857;-80
2022/01/13 06:56:12;;;;;;;111.00;51.10;;;;;;;1.62;80.59;101387.27;130419;1266;108729;-79
2022/01/13 07:15:06;;;;;;;52.70;33.30;;;;;;;1.99;80.09;101391.92;126229;1310;648639;-80
2022/01/13 07:18:12;;;;;;;29.50;17.30;;;;;;;2.10;80.02;101412.67;129092;1281;164778;-79
2022/01/13 07:21:20;;;;;;;35.30;19.30;;;;;;;2.09;80.02;101431.48;129955;1273;106898;-78
2022/01/13 07:24:26;;;;;;;28.00;15.40;;;;;;;2.04;80.27;101445.21;129999;1274;107194;-78
2022/01/13 07:27:31;;;;;;;39.10;21.20;;;;;;;1.93;80.53;101436.02;130053;1273;109175;-77
2022/01/13 07:30:37;;;;;;;71.90;36.80;;;;;;;1.97;80.54;101428.67;130050;1272;108953;-77
2022/01/13 07:33:42;;;;;;;36.90;21.10;;;;;;;2.03;80.55;101417.36;129923;1274;108973;-77
2022/01/13 07:36:47;;;;;;;36.70;19.70;;;;;;;2.05;80.49;101406.38;130371;1268;108829;-77
2022/01/13 07:39:53;;;;;;;22.60;13.20;;;;;;;2.03;80.44;101397.55;130347;1268;107059;-76
2022/01/13 07:42:58;;;;;;;25.10;16.60;;;;;;;2.01;80.47;101387.08;130433;1268;108820;-76
2022/01/13 07:46:04;;;;;;;19.30;12.90;;;;;;;2.02;80.50;101386.34;130357;1268;108821;-77
2022/01/13 07:49:09;;;;;;;21.30;13.70;;;;;;;2.04;80.58;101397.11;130411;1268;108933;-76
2022/01/13 07:52:15;;;;;;;21.90;14.00;;;;;;;2.05;80.74;101398.16;130363;1268;109748;-76
2022/01/13 07:55:21;;;;;;;128.60;56.50;;;;;;;2.02;80.69;101400.41;130452;1268;108670;-76
2022/01/13 07:58:26;;;;;;;43.00;27.40;;;;;;;2.01;80.77;101403.41;130525;1268;108732;-77
2022/01/13 08:01:32;;;;;;;29.50;18.50;;;;;;;1.98;80.90;101412.33;130388;1268;109107;-76
2022/01/13 08:04:37;;;;;;;29.90;15.60;;;;;;;2.00;81.12;101416.46;130377;1268;108951;-76
2022/01/13 08:07:43;;;;;;;30.30;16.90;;;;;;;2.02;81.07;101418.82;130382;1268;108673;-77
2022/01/13 08:10:48;;;;;;;66.30;32.10;;;;;;;2.03;81.17;101415.78;130449;1268;108852;-75
2022/01/13 08:13:54;;;;;;;44.40;26.00;;;;;;;2.03;80.95;101419.80;130450;1268;108749;-76
2022/01/13 08:17:02;;;;;;;34.50;18.70;;;;;;;2.05;80.94;101421.31;130356;1267;108781;-76
2022/01/13 08:20:10;;;;;;;54.00;30.70;;;;;;;2.02;81.03;101424.05;130318;1268;107853;-76
2022/01/13 08:23:15;;;;;;;43.60;24.50;;;;;;;2.02;81.16;101413.92;130447;1267;106810;-76
2022/01/13 08:26:21;;;;;;;57.70;33.30;;;;;;;2.05;81.18;101417.44;130374;1268;109027;-76
2022/01/13 08:29:27;;;;;;;119.00;58.00;;;;;;;2.10;81.32;101423.88;130404;1267;108891;-76
2022/01/13 08:32:32;;;;;;;31.70;17.00;;;;;;;2.11;81.19;101421.73;130354;1267;108790;-77
2022/01/13 08:35:43;;;;;;;27.20;15.50;;;;;;;2.13;81.19;101422.52;130348;1267;108732;-75
2022/01/13 08:38:49;;;;;;;31.60;16.90;;;;;;;2.12;81.48;101427.83;130321;1268;107201;-75
2022/01/13 08:41:55;;;;;;;30.40;15.80;;;;;;;2.11;81.52;101426.64;130280;1267;108717;-76
2022/01/13 08:45:00;;;;;;;36.90;19.50;;;;;;;2.16;81.44;101437.68;130357;1268;108756;-77
2022/01/13 08:48:07;;;;;;;29.90;16.40;;;;;;;2.21;81.35;101419.02;130356;1267;108775;-77
2022/01/13 08:51:12;;;;;;;29.40;17.90;;;;;;;2.26;81.47;101409.08;130318;1267;107107;-76
2022/01/13 08:54:20;;;;;;;52.80;32.60;;;;;;;2.31;81.37;101404.13;130278;1267;108831;-75
2022/01/13 08:57:26;;;;;;;57.20;32.00;;;;;;;2.33;81.25;101419.48;130275;1267;108722;-76
2022/01/13 09:00:36;;;;;;;154.40;76.60;;;;;;;2.35;81.32;101413.79;130272;1268;108762;-76
2022/01/13 09:03:42;;;;;;;124.10;64.90;;;;;;;2.39;81.48;101401.14;130347;1268;109209;-76
2022/01/13 09:06:47;;;;;;;134.30;73.50;;;;;;;2.39;81.54;101398.69;130301;1267;108676;-76
2022/01/13 09:09:53;;;;;;;128.10;71.90;;;;;;;2.40;81.39;101399.15;130278;1268;108704;-77
2022/01/13 09:12:58;;;;;;;219.70;79.30;;;;;;;2.43;81.44;101393.75;130531;1270;108768;-76
2022/01/13 09:16:13;;;;;;;40.00;23.70;;;;;;;2.42;81.58;101391.85;131097;1267;108861;-78
2022/01/13 09:19:19;;;;;;;32.50;18.30;;;;;;;2.46;81.51;101386.94;130331;1268;108460;-80
2022/01/13 09:22:25;;;;;;;31.50;17.30;;;;;;;2.51;81.64;101385.45;130348;1268;109329;-83
2022/01/13 09:25:30;;;;;;;32.60;18.80;;;;;;;2.59;81.60;101385.43;130429;1268;108768;-77
2022/01/13 09:28:37;;;;;;;32.60;17.90;;;;;;;2.62;81.56;101397.55;130346;1268;108593;-76
2022/01/13 09:31:44;;;;;;;31.50;15.80;;;;;;;2.61;81.64;101392.02;130289;1268;108889;-77
2022/01/13 09:34:49;;;;;;;32.20;16.30;;;;;;;2.61;81.56;101385.66;130313;1269;108830;-78
2022/01/13 09:37:55;;;;;;;29.40;16.20;;;;;;;2.63;81.82;101387.50;130282;1268;108666;-78
2022/01/13 09:41:01;;;;;;;30.20;16.30;;;;;;;2.64;81.72;101374.10;130086;1268;108848;-78
2022/01/13 09:44:07;;;;;;;39.90;25.30;;;;;;;2.69;81.75;101376.47;130137;1268;107196;-79
2022/01/13 09:47:15;;;;;;;31.30;17.20;;;;;;;2.68;81.77;101371.12;130306;1268;108755;-78
2022/01/13 09:50:22;;;;;;;29.80;16.00;;;;;;;2.70;81.82;101364.69;130332;1268;108771;-76
2022/01/13 09:53:28;;;;;;;39.30;19.10;;;;;;;2.69;81.95;101367.20;130333;1268;108767;-80
2022/01/13 09:56:35;;;;;;;44.50;20.70;;;;;;;2.65;81.98;101357.56;130461;1268;107703;-77
2022/01/13 09:59:40;;;;;;;50.10;22.10;;;;;;;2.68;81.97;101350.21;130252;1268;109724;-77
2022/01/13 10:02:46;;;;;;;54.10;28.40;;;;;;;2.71;81.99;101349.34;130192;1271;108923;-79
2022/01/13 10:05:54;;;;;;;63.20;33.80;;;;;;;2.77;82.36;101343.80;130311;1268;108895;-79
2022/01/13 10:09:00;;;;;;;51.50;28.80;;;;;;;2.75;82.24;101338.95;130359;1268;108844;-79
2022/01/13 10:12:08;;;;;;;37.20;17.90;;;;;;;2.79;82.04;101340.89;130352;1267;108569;-76
2022/01/13 10:18:43;;;;;;;117.50;55.10;;;;;;;2.84;82.04;101333.80;130324;1268;108792;-77
2022/01/13 10:21:57;;;;;;;162.50;82.50;;;;;;;2.90;82.08;101328.73;130298;1268;109697;-76
2022/01/13 10:25:03;;;;;;;99.70;51.20;;;;;;;2.95;82.13;101325.82;130335;1268;109741;-75
2022/01/13 10:28:18;;;;;;;112.40;57.60;;;;;;;2.96;82.19;101315.98;130410;1268;108854;-76
2022/01/13 10:31:42;;;;;;;107.40;53.80;;;;;;;2.93;82.20;101309.77;130321;1268;108662;-77
2022/01/13 10:34:50;;;;;;;68.30;39.30;;;;;;;2.90;82.21;101310.27;130257;1268;108574;-77
2022/01/13 10:38:01;;;;;;;36.80;20.00;;;;;;;2.91;82.56;101310.41;130280;1268;109225;-78
2022/01/13 10:41:31;;;;;;;36.90;20.00;;;;;;;2.93;82.37;101304.66;130327;1267;108908;-78
2022/01/13 10:44:37;;;;;;;34.10;17.60;;;;;;;2.99;82.50;101301.36;130437;1268;108819;-77
2022/01/13 10:47:49;;;;;;;171.70;65.10;;;;;;;3.00;82.60;101298.69;130311;1268;108819;-77
2022/01/13 10:50:56;;;;;;;;;;;;;;;3.02;82.54;101291.77;130310;1268;108670;-77
2022/01/13 10:54:02;;;;;;;98.20;52.00;;;;;;;3.03;82.53;101284.12;130279;1268;108785;-77
2022/01/13 10:57:21;;;;;;;35.40;17.80;;;;;;;3.07;82.74;101282.86;130341;1268;108855;-77
2022/01/13 11:00:30;;;;;;;44.70;19.40;;;;;;;3.12;82.59;101279.95;130269;1267;108655;-76
2022/01/13 11:03:39;;;;;;;42.60;19.50;;;;;;;3.15;82.58;101287.57;130344;1267;108764;-76
2022/01/13 11:06:45;;;;;;;42.10;19.20;;;;;;;3.16;82.85;101294.33;130298;1267;109889;-78
2022/01/13 11:09:57;;;;;;;39.70;18.70;;;;;;;3.12;82.94;101288.40;130290;1267;108970;-77
2022/01/13 11:13:04;;;;;;;53.70;28.40;;;;;;;3.12;83.16;101282.60;130293;1268;108710;-78
2022/01/13 11:16:10;;;;;;;38.00;20.60;;;;;;;3.10;83.13;101281.28;130355;1268;108763;-77
2022/01/13 11:19:17;;;;;;;51.70;30.10;;;;;;;3.13;83.07;101273.90;130328;1268;108170;-76
2022/01/13 11:22:24;;;;;;;51.30;27.80;;;;;;;3.21;83.17;101259.67;130316;1268;109375;-78
2022/01/13 11:25:29;;;;;;;50.80;26.00;;;;;;;3.24;83.19;101248.23;130311;1268;108671;-78
2022/01/13 11:28:37;;;;;;;36.40;18.60;;;;;;;3.24;83.04;101242.78;130246;1270;108794;-79
2022/01/13 11:31:42;;;;;;;46.70;24.80;;;;;;;3.19;83.21;101242.86;130260;1268;109074;-78
2022/01/13 11:34:49;;;;;;;35.80;19.10;;;;;;;3.20;83.05;101240.02;130291;1268;109095;-79
2022/01/13 11:37:56;;;;;;;61.90;28.60;;;;;;;3.22;83.33;101236.91;130320;1267;107544;-80
2022/01/13 11:41:04;;;;;;;85.20;37.60;;;;;;;3.22;83.28;101235.52;130309;1268;108649;-77
2022/01/13 11:44:17;;;;;;;72.80;35.30;;;;;;;3.20;83.49;101227.69;130411;1268;109157;-79
2022/01/13 11:47:25;;;;;;;51.80;25.30;;;;;;;3.21;83.34;101221.69;130289;1268;108666;-79
2022/01/13 11:50:42;;;;;;;46.20;24.50;;;;;;;3.25;83.44;101220.96;130291;1268;108687;-77
2022/01/13 11:54:05;;;;;;;54.90;30.50;;;;;;;3.22;83.48;101227.97;130342;1267;108781;-78
2022/01/13 11:57:19;;;;;;;50.10;28.70;;;;;;;3.22;83.40;101221.06;130386;1268;107552;-78
2022/01/13 12:00:29;;;;;;;48.00;26.70;;;;;;;3.26;83.63;101217.68;130374;1267;108799;-76
2022/01/13 12:03:36;;;;;;;46.80;26.30;;;;;;;3.25;83.39;101214.75;130373;1268;108540;-78
2022/01/13 12:06:46;;;;;;;46.60;26.10;;;;;;;3.24;83.83;101206.57;130308;1267;108756;-77
2022/01/13 12:09:52;;;;;;;44.40;22.80;;;;;;;3.17;83.93;101206.58;130376;1267;107744;-77
2022/01/13 12:12:57;;;;;;;36.80;19.20;;;;;;;3.18;83.66;101201.94;130376;1268;109023;-78
2022/01/13 12:16:03;;;;;;;38.50;20.70;;;;;;;3.26;83.91;101203.95;130324;1267;108691;-80
2022/01/13 12:19:15;;;;;;;91.10;50.30;;;;;;;3.33;83.85;101206.05;130407;1267;109857;-79
2022/01/13 12:22:41;;;;;;;43.90;24.70;;;;;;;3.35;83.75;101201.92;130418;1267;107346;-80
2022/01/13 12:25:46;;;;;;;76.60;36.40;;;;;;;3.37;83.68;101206.76;130401;1268;108775;-80
2022/01/13 12:29:10;;;;;;;81.60;35.90;;;;;;;3.37;83.86;101188.45;130153;1268;109097;-77
2022/01/13 12:32:18;;;;;;;182.90;83.80;;;;;;;3.38;83.99;101185.77;130248;1268;108755;-79
2022/01/13 12:35:43;;;;;;;84.00;40.60;;;;;;;3.37;84.24;101187.56;130342;1268;109572;-78
2022/01/13 12:38:59;;;;;;;210.00;83.60;;;;;;;3.35;84.40;101185.39;130330;1267;108894;-78
2022/01/13 12:42:14;;;;;;;109.30;47.10;;;;;;;3.34;84.31;101184.02;130297;1270;108687;-77
2022/01/13 12:45:33;;;;;;;125.60;49.30;;;;;;;3.34;84.29;101181.38;130400;1267;108693;-77
2022/01/13 12:48:40;;;;;;;69.40;48.30;;;;;;;3.36;84.31;101167.91;130331;1267;107421;-77
2022/01/13 12:51:46;;;;;;;29.80;15.90;;;;;;;3.42;84.32;101164.98;130303;1268;108699;-78
2022/01/13 12:54:54;;;;;;;28.80;15.40;;;;;;;3.44;84.22;101160.95;130333;1267;108875;-78
2022/01/13 12:58:00;;;;;;;45.80;26.60;;;;;;;3.45;84.13;101147.52;130307;1268;108652;-77
2022/01/13 13:01:08;;;;;;;210.40;95.40;;;;;;;3.48;84.03;101147.20;130358;1267;108638;-78
2022/01/13 13:04:15;;;;;;;32.80;18.50;;;;;;;3.46;84.20;101165.40;130306;1268;109881;-81
2022/01/13 13:07:20;;;;;;;36.60;19.80;;;;;;;3.48;84.12;101162.52;130335;1267;108754;-77
2022/01/13 13:10:26;;;;;;;30.60;17.00;;;;;;;3.54;84.13;101166.73;130318;1267;107756;-78
2022/01/13 13:13:34;;;;;;;30.20;15.50;;;;;;;3.56;84.22;101164.52;130269;1268;109123;-79
2022/01/13 13:16:44;;;;;;;32.10;17.50;;;;;;;3.55;84.08;101160.17;130257;1270;107015;-77
2022/01/13 13:19:49;;;;;;;28.10;15.20;;;;;;;3.50;84.09;101166.42;130287;1271;107599;-77
2022/01/13 13:22:58;;;;;;;36.40;22.30;;;;;;;3.48;84.08;101166.00;130214;1270;108685;-76
2022/01/13 13:26:12;;;;;;;58.10;36.30;;;;;;;3.49;84.19;101169.48;130250;1270;108466;-76
2022/01/13 13:29:25;;;;;;;88.00;46.60;;;;;;;3.42;84.62;101173.42;130257;1270;108953;-77
2022/01/13 13:32:30;;;;;;;36.50;20.30;;;;;;;3.38;84.42;101186.80;130275;1270;107702;-77
2022/01/13 13:35:36;;;;;;;75.30;26.60;;;;;;;3.38;84.52;101190.70;130253;1270;108768;-78
2022/01/13 13:39:01;;;;;;;56.50;22.00;;;;;;;3.42;84.76;101183.40;130241;1269;108861;-78
2022/01/13 13:42:09;;;;;;;278.00;97.90;;;;;;;3.45;84.67;101193.27;130287;1269;108928;-79
2022/01/13 13:45:17;;;;;;;187.20;71.90;;;;;;;3.46;84.54;101191.80;130266;1270;108610;-79
2022/01/13 13:48:27;;;;;;;37.80;22.30;;;;;;;3.46;84.48;101192.70;130207;1269;109634;-78
2022/01/13 13:51:34;;;;;;;29.40;18.00;;;;;;;3.44;84.43;101189.44;130228;1270;108901;-78
2022/01/13 13:54:45;;;;;;;87.00;40.60;;;;;;;3.46;84.66;101190.39;130229;1269;106898;-75
2022/01/13 13:57:50;;;;;;;111.50;51.00;;;;;;;3.46;84.63;101183.20;130159;1270;108585;-78
2022/01/13 14:01:07;;;;;;;94.90;43.00;;;;;;;3.48;84.68;101174.83;130230;1269;107231;-77
2022/01/13 14:04:13;;;;;;;114.70;50.50;;;;;;;3.51;84.45;101180.64;130395;1270;108726;-78
2022/01/13 14:07:23;;;;;;;268.90;98.70;;;;;;;3.50;84.57;101180.51;130230;1269;108729;-78
2022/01/13 14:10:29;;;;;;;184.90;74.10;;;;;;;3.47;84.85;101179.96;130229;1271;108760;-76
2022/01/13 14:13:34;;;;;;;41.10;23.50;;;;;;;3.47;84.93;101181.58;130266;1270;107088;-77
2022/01/13 14:16:40;;;;;;;23.30;14.00;;;;;;;3.43;85.05;101172.30;130280;1270;108682;-77
2022/01/13 14:20:07;;;;;;;23.10;14.90;;;;;;;3.49;85.13;101167.36;130121;1270;107541;-76
2022/01/13 14:23:17;;;;;;;84.90;39.20;;;;;;;3.52;84.97;101159.65;130303;1270;108904;-78
2022/01/13 14:26:23;;;;;;;44.40;26.20;;;;;;;3.50;85.05;101151.30;130194;1270;107683;-77
2022/01/13 14:29:28;;;;;;;26.50;15.50;;;;;;;3.51;84.95;101158.84;130265;1270;108580;-75